Time;durP1;ratioP1;P1;durP2;ratioP2;P2;SDS_P1;SDS_P2;PMS_P1;PMS_P2;Temp;Humidity;BMP_temperature;BMP_pressure;BME280_temperature;BME280_humidity;BME280_pressure;Samples;Min_cycle;Max_cycle;Signal;HPM_P1;HPM_P2
2022/05/15 00:00:38;;;;;;;5.03;1.67;;;13.10;99.90;;;;;;5052349;28;20677;-58
2022/05/15 00:03:05;;;;;;;3.63;1.93;;;13.10;99.90;;;;;;5053456;28;20221;-58
2022/05/15 00:05:32;;;;;;;3.60;1.73;;;13.10;99.90;;;;;;5052651;28;20573;-58
2022/05/15 00:07:59;;;;;;;3.63;1.70;;;13.20;99.90;;;;;;5052764;28;20233;-58
2022/05/15 00:10:25;;;;;;;3.20;1.70;;;13.20;99.90;;;;;;5052708;28;20232;-58
2022/05/15 00:12:53;;;;;;;4.90;1.90;;;13.20;99.90;;;;;;5053069;28;20283;-58
2022/05/15 00:15:20;;;;;;;3.57;1.93;;;13.20;99.90;;;;;;5052617;28;20609;-58
2022/05/15 00:17:47;;;;;;;5.73;2.20;;;13.10;99.90;;;;;;5052621;28;20229;-58
2022/05/15 00:20:13;;;;;;;2.60;1.70;;;13.10;99.90;;;;;;5052708;28;20206;-58
2022/05/15 00:22:40;;;;;;;3.40;1.70;;;13.00;99.90;;;;;;5052660;28;20431;-58
2022/05/15 00:25:08;;;;;;;3.07;1.77;;;13.00;99.90;;;;;;5052408;28;20304;-58
2022/05/15 00:27:36;;;;;;;2.80;1.70;;;12.90;99.90;;;;;;5052135;28;20859;-57
2022/05/15 00:30:05;;;;;;;2.97;1.77;;;12.90;99.90;;;;;;5052592;28;20216;-58
2022/05/15 00:32:32;;;;;;;3.93;2.17;;;12.90;99.90;;;;;;5052326;28;20588;-57
2022/05/15 00:34:59;;;;;;;4.47;1.67;;;12.90;99.90;;;;;;5052319;28;20293;-57
2022/05/15 00:37:26;;;;;;;4.17;1.87;;;12.90;99.90;;;;;;5051860;28;20244;-58
2022/05/15 00:39:53;;;;;;;2.87;1.70;;;12.90;99.90;;;;;;5052070;28;20229;-58
2022/05/15 00:42:19;;;;;;;4.37;1.60;;;12.80;99.90;;;;;;5052220;28;20619;-58
2022/05/15 00:44:47;;;;;;;3.30;1.70;;;12.80;99.90;;;;;;5052263;28;20201;-57
2022/05/15 00:47:15;;;;;;;3.73;1.80;;;12.80;99.90;;;;;;5051836;28;20306;-57
2022/05/15 00:49:42;;;;;;;3.53;1.50;;;12.70;99.90;;;;;;5052150;28;20284;-57
2022/05/15 00:52:12;;;;;;;4.63;2.17;;;12.70;99.90;;;;;;5051884;28;20206;-58
2022/05/15 00:54:44;;;;;;;1.73;1.50;;;12.60;99.90;;;;;;5052293;28;20222;-57
2022/05/15 00:57:17;;;;;;;2.90;1.70;;;12.60;99.90;;;;;;5052023;28;20272;-57
2022/05/15 00:59:51;;;;;;;3.43;1.50;;;12.50;99.90;;;;;;5052270;28;20221;-57
2022/05/15 01:02:21;;;;;;;3.57;1.80;;;12.40;99.90;;;;;;5052275;28;20267;-57
2022/05/15 01:04:48;;;;;;;3.50;1.90;;;12.40;99.90;;;;;;5052004;28;20681;-58
2022/05/15 01:07:15;;;;;;;2.37;1.90;;;12.30;99.90;;;;;;5052010;28;20248;-58
2022/05/15 01:09:42;;;;;;;2.90;2.10;;;12.30;99.90;;;;;;5052025;28;20206;-57
2022/05/15 01:12:11;;;;;;;3.67;1.93;;;12.30;99.90;;;;;;5051870;28;20575;-56
2022/05/15 01:14:40;;;;;;;2.03;1.60;;;12.20;99.90;;;;;;5052155;28;20205;-57
2022/05/15 01:17:07;;;;;;;2.37;1.80;;;12.20;99.90;;;;;;5051322;28;20755;-58
2022/05/15 01:19:37;;;;;;;3.63;1.50;;;12.20;99.90;;;;;;5051649;28;20570;-58
2022/05/15 01:22:08;;;;;;;2.43;1.60;;;12.10;99.90;;;;;;5051980;28;20251;-59
2022/05/15 01:24:35;;;;;;;2.20;1.80;;;12.20;99.90;;;;;;5051942;28;20577;-57
2022/05/15 01:27:10;;;;;;;2.50;1.70;;;12.20;99.90;;;;;;5051350;28;20724;-57
2022/05/15 01:29:40;;;;;;;3.67;2.03;;;12.20;99.90;;;;;;5051587;28;20673;-57
2022/05/15 01:32:08;;;;;;;2.47;1.90;;;12.10;99.90;;;;;;5052010;28;20263;-56
2022/05/15 01:34:35;;;;;;;4.70;1.77;;;12.10;99.90;;;;;;5051738;28;20206;-57
2022/05/15 01:37:02;;;;;;;3.17;1.60;;;12.10;99.90;;;;;;5051368;28;20276;-58
2022/05/15 01:39:31;;;;;;;3.60;1.70;;;12.20;99.90;;;;;;5051573;28;20232;-57
2022/05/15 01:41:58;;;;;;;3.27;1.70;;;12.20;99.90;;;;;;5051522;28;20669;-57
2022/05/15 01:44:25;;;;;;;5.10;1.97;;;12.10;99.90;;;;;;5051473;28;20205;-57
2022/05/15 01:46:52;;;;;;;2.70;1.83;;;12.10;99.90;;;;;;5051506;28;20752;-58
2022/05/15 01:49:19;;;;;;;3.20;1.47;;;12.10;99.90;;;;;;5051589;28;20210;-57
2022/05/15 01:51:47;;;;;;;3.77;1.47;;;12.10;99.90;;;;;;5051534;28;20246;-58
2022/05/15 01:54:14;;;;;;;2.97;1.60;;;12.10;99.90;;;;;;5052588;28;20665;-58
2022/05/15 01:56:42;;;;;;;4.37;1.87;;;12.10;99.90;;;;;;5055151;28;20279;-58
2022/05/15 01:59:10;;;;;;;2.77;1.60;;;12.20;99.90;;;;;;5055464;28;20233;-58
2022/05/15 02:01:37;;;;;;;3.03;1.80;;;12.20;99.90;;;;;;5055434;28;20206;-58
2022/05/15 02:04:07;;;;;;;2.00;1.50;;;12.20;99.90;;;;;;5055305;28;20236;-58
2022/05/15 02:06:34;;;;;;;2.97;1.70;;;12.20;99.90;;;;;;5054811;28;20241;-58
2022/05/15 02:09:01;;;;;;;5.50;3.93;;;12.20;99.90;;;;;;5055232;28;20251;-57
2022/05/15 02:11:27;;;;;;;7.70;6.10;;;12.30;99.90;;;;;;5055507;28;20205;-59
2022/05/15 02:13:55;;;;;;;5.93;4.40;;;12.30;99.90;;;;;;5055227;28;20205;-57
2022/05/15 02:16:22;;;;;;;3.10;2.33;;;12.30;99.90;;;;;;5054970;28;20259;-57
2022/05/15 02:18:49;;;;;;;3.47;2.67;;;12.30;99.90;;;;;;5055086;28;20697;-58
2022/05/15 02:21:16;;;;;;;4.87;2.53;;;12.40;99.90;;;;;;5055026;28;20205;-57
2022/05/15 02:23:42;;;;;;;3.30;2.53;;;12.40;99.90;;;;;;5054820;28;20213;-57
2022/05/15 02:26:09;;;;;;;2.87;2.00;;;12.40;99.90;;;;;;5054985;28;20571;-57
2022/05/15 02:28:37;;;;;;;2.57;1.80;;;12.30;99.90;;;;;;5054571;28;20275;-57
2022/05/15 02:31:05;;;;;;;3.63;2.00;;;12.40;99.90;;;;;;5054762;28;20661;-57
2022/05/15 02:33:32;;;;;;;2.67;2.10;;;12.40;99.90;;;;;;5054710;28;20260;-57
2022/05/15 02:35:59;;;;;;;3.90;2.10;;;12.40;99.90;;;;;;5054420;28;20210;-58
2022/05/15 02:38:26;;;;;;;3.20;1.60;;;12.40;99.90;;;;;;5054248;28;20252;-56
2022/05/15 02:40:53;;;;;;;4.03;1.80;;;12.40;99.90;;;;;;5054684;28;20261;-58
2022/05/15 02:43:20;;;;;;;6.63;2.40;;;12.40;99.90;;;;;;5054497;28;20588;-57
2022/05/15 02:45:47;;;;;;;2.53;2.07;;;12.40;99.90;;;;;;5054200;28;20627;-57
2022/05/15 02:51:04;;;;;;;5.33;2.17;;;12.40;99.90;;;;;;5053537;28;20208;-57
2022/05/15 02:53:31;;;;;;;6.93;2.07;;;12.30;99.90;;;;;;5054229;28;20664;-57
2022/05/15 02:55:59;;;;;;;4.00;2.20;;;12.30;99.90;;;;;;5054289;28;20240;-57
2022/05/15 02:58:26;;;;;;;3.77;2.73;;;12.30;99.90;;;;;;5054203;28;20232;-57
2022/05/15 03:00:52;;;;;;;8.67;7.27;;;12.20;99.90;;;;;;5054212;28;20230;-57
2022/05/15 03:03:21;;;;;;;4.07;2.20;;;12.10;99.90;;;;;;5054062;28;20620;-57
2022/05/15 03:05:47;;;;;;;2.33;1.70;;;12.10;99.90;;;;;;5052806;28;20209;-57
2022/05/15 03:08:14;;;;;;;4.67;2.23;;;12.00;99.90;;;;;;5053986;28;20892;-57
2022/05/15 03:10:41;;;;;;;2.40;2.20;;;11.90;99.90;;;;;;5054093;28;20201;-59
2022/05/15 03:13:07;;;;;;;2.20;1.57;;;11.90;99.90;;;;;;5054001;28;20259;-57
2022/05/15 03:15:34;;;;;;;3.40;1.80;;;11.90;99.90;;;;;;5053658;28;20212;-57
2022/05/15 03:18:01;;;;;;;5.40;2.00;;;11.90;99.90;;;;;;5053683;28;20225;-57
2022/05/15 03:20:29;;;;;;;6.37;2.00;;;11.80;99.90;;;;;;5054005;28;20234;-57
2022/05/15 03:22:56;;;;;;;3.73;2.13;;;11.70;99.90;;;;;;5053790;28;20206;-56
2022/05/15 03:25:23;;;;;;;4.43;1.80;;;11.60;99.90;;;;;;5053985;28;20297;-57
2022/05/15 03:27:50;;;;;;;2.40;1.63;;;11.50;99.90;;;;;;5053516;28;20307;-57
2022/05/15 03:30:16;;;;;;;4.73;2.40;;;11.40;99.90;;;;;;5053623;28;20220;-57
2022/05/15 03:32:43;;;;;;;2.53;1.80;;;11.40;99.90;;;;;;5053524;28;20220;-57
2022/05/15 03:35:11;;;;;;;3.37;1.90;;;11.30;99.90;;;;;;5053552;28;20209;-57
2022/05/15 03:37:40;;;;;;;3.67;1.77;;;11.20;99.90;;;;;;5053081;28;20323;-57
2022/05/15 03:40:08;;;;;;;4.20;1.90;;;11.20;99.90;;;;;;5053411;28;20639;-57
2022/05/15 03:42:35;;;;;;;6.27;1.60;;;11.20;99.90;;;;;;5053353;28;20665;-57
2022/05/15 03:45:02;;;;;;;4.93;1.83;;;11.20;99.90;;;;;;5053166;28;20210;-57
2022/05/15 03:47:29;;;;;;;3.90;1.70;;;11.20;99.90;;;;;;5053191;28;20283;-57
2022/05/15 03:49:55;;;;;;;3.80;1.73;;;11.30;99.90;;;;;;5053360;28;20202;-57
2022/05/15 03:52:22;;;;;;;3.87;1.70;;;11.30;99.90;;;;;;5053355;28;20275;-56
2022/05/15 03:54:50;;;;;;;2.93;1.80;;;11.30;99.90;;;;;;5053235;28;20213;-57
2022/05/15 03:57:17;;;;;;;3.60;1.80;;;11.30;99.90;;;;;;5052816;28;20352;-57
2022/05/15 03:59:44;;;;;;;2.90;1.83;;;11.30;99.90;;;;;;5052967;28;20232;-57
2022/05/15 04:02:11;;;;;;;2.67;1.53;;;11.30;99.90;;;;;;5053167;28;20213;-57
2022/05/15 04:04:39;;;;;;;4.17;1.97;;;11.40;99.90;;;;;;5053038;28;20205;-57
2022/05/15 04:07:06;;;;;;;3.37;1.97;;;11.40;99.90;;;;;;5052361;28;20720;-57
2022/05/15 04:09:33;;;;;;;3.83;2.20;;;11.50;99.90;;;;;;5052895;28;20623;-56
2022/05/15 04:12:01;;;;;;;3.60;1.57;;;11.50;99.90;;;;;;5052779;28;20209;-58
2022/05/15 04:14:29;;;;;;;3.57;1.73;;;11.50;99.90;;;;;;5052685;28;20201;-57
2022/05/15 04:16:56;;;;;;;2.00;1.80;;;11.50;99.90;;;;;;5052130;28;20315;-56
2022/05/15 04:19:23;;;;;;;2.33;1.80;;;11.50;99.90;;;;;;5052649;28;20229;-56
2022/05/15 04:21:50;;;;;;;2.00;1.70;;;11.60;99.90;;;;;;5052818;28;20210;-58
2022/05/15 04:24:18;;;;;;;2.60;1.57;;;11.60;99.90;;;;;;5052610;28;20271;-56
2022/05/15 04:26:47;;;;;;;3.33;1.97;;;11.60;99.90;;;;;;5052024;28;20230;-56
2022/05/15 04:29:15;;;;;;;4.03;1.87;;;11.60;99.90;;;;;;5052518;28;20729;-56
2022/05/15 04:31:41;;;;;;;2.60;1.83;;;11.70;99.90;;;;;;5052509;28;20217;-57
2022/05/15 04:34:08;;;;;;;3.47;1.80;;;11.70;99.90;;;;;;5052503;28;20244;-57
2022/05/15 04:36:35;;;;;;;3.00;1.80;;;11.70;99.90;;;;;;5052109;28;20226;-56
2022/05/15 04:39:03;;;;;;;3.37;1.77;;;11.80;99.90;;;;;;5052249;28;20263;-57
2022/05/15 04:41:30;;;;;;;3.27;1.80;;;11.90;99.90;;;;;;5052507;28;20213;-59
2022/05/15 04:43:57;;;;;;;4.40;1.90;;;12.00;99.90;;;;;;5052431;28;20318;-57
2022/05/15 04:46:26;;;;;;;3.23;1.90;;;12.00;99.90;;;;;;5051995;28;20206;-56
2022/05/15 04:48:52;;;;;;;1.97;1.77;;;12.00;99.90;;;;;;5052161;28;20213;-58
2022/05/15 04:51:19;;;;;;;2.93;1.90;;;12.10;99.90;;;;;;5052168;28;20228;-59
2022/05/15 04:53:46;;;;;;;6.03;1.67;;;12.10;99.90;;;;;;5051852;28;20688;-57
2022/05/15 04:56:14;;;;;;;2.57;1.80;;;12.20;99.90;;;;;;5051775;28;20218;-57
2022/05/15 04:58:40;;;;;;;4.40;1.90;;;12.30;99.90;;;;;;5052235;28;20263;-57
2022/05/15 05:01:07;;;;;;;3.40;1.70;;;12.40;99.90;;;;;;5051846;28;20713;-57
2022/05/15 05:03:35;;;;;;;3.03;1.70;;;12.40;99.90;;;;;;5051823;28;20259;-57
2022/05/15 05:06:02;;;;;;;4.20;2.00;;;12.40;99.90;;;;;;5051807;28;20210;-57
2022/05/15 05:08:29;;;;;;;3.67;1.90;;;12.50;99.90;;;;;;5052180;28;20229;-56
2022/05/15 05:10:55;;;;;;;2.37;1.70;;;12.60;99.90;;;;;;5051985;28;20201;-56
2022/05/15 05:13:22;;;;;;;3.63;1.80;;;12.80;99.90;;;;;;5051927;28;20213;-57
2022/05/15 05:15:49;;;;;;;3.13;1.70;;;12.90;99.90;;;;;;5051668;28;20209;-56
2022/05/15 05:18:17;;;;;;;2.97;1.80;;;13.10;99.90;;;;;;5051624;28;20229;-56
2022/05/15 05:20:46;;;;;;;2.87;1.90;;;13.30;99.90;;;;;;5051607;28;20233;-57
2022/05/15 05:23:14;;;;;;;4.20;2.00;;;13.50;99.90;;;;;;5051708;28;20209;-56
2022/05/15 05:25:42;;;;;;;4.20;1.80;;;13.70;99.90;;;;;;5051768;28;20225;-56
2022/05/15 05:28:09;;;;;;;3.27;1.90;;;14.20;99.90;;;;;;5051107;28;20234;-56
2022/05/15 05:30:37;;;;;;;2.30;1.73;;;15.80;99.90;;;;;;5051389;28;20205;-56
2022/05/15 05:33:04;;;;;;;2.00;1.63;;;17.80;99.90;;;;;;5051571;28;20255;-56
2022/05/15 05:35:31;;;;;;;4.15;1.70;;;19.40;99.90;;;;;;5051449;28;20205;-56
2022/05/15 05:37:59;;;;;;;2.60;1.80;;;20.10;99.90;;;;;;5051258;28;20240;-56
2022/05/15 05:40:26;;;;;;;5.03;1.90;;;21.00;99.90;;;;;;5051513;28;20228;-57
2022/05/15 05:42:53;;;;;;;3.35;1.67;;;22.70;96.90;;;;;;5051551;28;20217;-56
2022/05/15 05:45:20;;;;;;;3.00;1.70;;;24.50;92.50;;;;;;5051501;28;20570;-57
2022/05/15 05:47:48;;;;;;;4.72;1.77;;;25.60;84.00;;;;;;5050987;28;20299;-57
2022/05/15 05:50:16;;;;;;;3.17;1.58;;;26.30;80.20;;;;;;5051319;28;20217;-56
2022/05/15 05:52:43;;;;;;;3.47;1.45;;;27.70;74.10;;;;;;5051457;28;20206;-57
2022/05/15 05:55:14;;;;;;;2.80;1.30;;;29.10;68.30;;;;;;5051421;28;20210;-57
2022/05/15 05:57:42;;;;;;;2.78;1.67;;;30.10;63.30;;;;;;5051050;28;20238;-55
2022/05/15 06:00:13;;;;;;;3.25;1.70;;;30.40;59.70;;;;;;5051165;28;20225;-55
2022/05/15 06:02:39;;;;;;;2.45;1.50;;;31.00;58.40;;;;;;5051051;28;20206;-56
2022/05/15 06:05:06;;;;;;;4.80;1.65;;;32.00;55.50;;;;;;5051414;28;20206;-56
2022/05/15 06:07:34;;;;;;;4.43;2.05;;;33.00;53.60;;;;;;5050859;28;20229;-56
2022/05/15 06:10:02;;;;;;;4.38;1.75;;;33.60;50.60;;;;;;5051401;28;20233;-55
2022/05/15 06:12:30;;;;;;;3.15;1.58;;;33.90;49.20;;;;;;5051314;28;20206;-55
2022/05/15 06:14:57;;;;;;;2.50;1.60;;;34.40;48.40;;;;;;5051105;28;20210;-56
2022/05/15 06:17:26;;;;;;;4.65;2.17;;;35.00;46.60;;;;;;5051022;28;20225;-56
2022/05/15 06:19:53;;;;;;;3.90;1.85;;;35.40;46.10;;;;;;5051129;28;20255;-56
2022/05/15 06:22:19;;;;;;;4.15;1.60;;;35.80;45.50;;;;;;5051294;28;20209;-57
2022/05/15 06:24:46;;;;;;;1.60;1.50;;;36.10;45.30;;;;;;5051258;28;20225;-56
2022/05/15 06:27:14;;;;;;;3.92;1.73;;;36.30;45.30;;;;;;5050780;28;20234;-55
2022/05/15 06:29:43;;;;;;;4.15;1.70;;;36.60;44.30;;;;;;5050965;28;20202;-56
2022/05/15 06:32:10;;;;;;;3.92;1.80;;;37.00;43.60;;;;;;5050862;28;20603;-56
2022/05/15 06:34:37;;;;;;;4.32;1.33;;;37.40;43.80;;;;;;5051117;28;20213;-56
2022/05/15 06:37:04;;;;;;;3.38;1.80;;;37.40;42.30;;;;;;5050867;28;20221;-56
2022/05/15 06:39:31;;;;;;;5.70;1.65;;;36.90;42.60;;;;;;5051064;28;20205;-55
2022/05/15 06:41:59;;;;;;;3.15;1.80;;;36.30;43.70;;;;;;5054343;28;20601;-56
2022/05/15 06:44:26;;;;;;;2.50;1.55;;;36.50;43.60;;;;;;5054649;28;20209;-56
2022/05/15 06:46:54;;;;;;;3.40;1.83;;;36.30;44.00;;;;;;5054251;28;20230;-56
2022/05/15 06:49:21;;;;;;;2.75;1.80;;;36.80;43.40;;;;;;5054519;28;20201;-55
2022/05/15 06:51:48;;;;;;;4.47;1.70;;;36.00;44.10;;;;;;5054259;28;20202;-55
2022/05/15 06:54:15;;;;;;;3.80;1.33;;;35.60;44.40;;;;;;5054340;28;20616;-56
2022/05/15 06:59:26;;;;;;;3.45;1.73;;;37.60;41.10;;;;;;5054445;28;20259;-56
2022/05/15 07:01:54;;;;;;;4.22;1.95;;;38.30;40.60;;;;;;5054137;28;20241;-56
2022/05/15 07:04:21;;;;;;;5.60;1.80;;;37.20;42.30;;;;;;5054128;28;20629;-55
2022/05/15 07:06:47;;;;;;;2.25;1.60;;;36.80;43.40;;;;;;5053606;28;20237;-55
2022/05/15 07:09:14;;;;;;;6.97;1.90;;;37.50;41.60;;;;;;5053891;28;20573;-55
2022/05/15 07:11:41;;;;;;;4.38;1.88;;;38.30;41.20;;;;;;5054087;28;20205;-55
2022/05/15 07:14:08;;;;;;;3.28;1.70;;;38.80;39.80;;;;;;5053972;28;20205;-55
2022/05/15 07:16:35;;;;;;;6.40;1.95;;;39.50;39.70;;;;;;5053612;28;20229;-56
2022/05/15 07:19:03;;;;;;;4.28;1.92;;;40.30;38.50;;;;;;5053812;28;20204;-56
2022/05/15 07:21:30;;;;;;;4.38;1.85;;;41.20;37.60;;;;;;5053527;28;20217;-56
2022/05/15 07:23:56;;;;;;;5.05;1.90;;;41.50;37.10;;;;;;5053686;28;20625;-55
2022/05/15 07:26:24;;;;;;;3.38;1.58;;;41.40;37.00;;;;;;5053474;28;20213;-55
2022/05/15 07:28:51;;;;;;;4.72;1.80;;;41.40;36.70;;;;;;5053941;28;20211;-55
2022/05/15 07:31:19;;;;;;;3.70;1.42;;;42.20;36.50;;;;;;5053394;28;20576;-56
2022/05/15 07:33:46;;;;;;;4.45;1.65;;;43.10;35.60;;;;;;5053704;28;20287;-56
2022/05/15 07:36:15;;;;;;;4.05;1.63;;;43.50;34.50;;;;;;5053159;28;20336;-56
2022/05/15 07:38:42;;;;;;;3.92;1.75;;;44.00;34.10;;;;;;5053637;28;20240;-56
2022/05/15 07:41:09;;;;;;;3.22;1.60;;;44.40;33.60;;;;;;5053613;28;20224;-56
2022/05/15 07:43:35;;;;;;;6.80;5.03;;;44.80;33.30;;;;;;5053513;28;20201;-57
2022/05/15 07:46:02;;;;;;;3.40;1.70;;;45.00;33.20;;;;;;5053216;28;20623;-55
2022/05/15 07:48:29;;;;;;;5.82;2.72;;;44.80;32.80;;;;;;5053251;28;20252;-56
2022/05/15 07:50:56;;;;;;;4.05;1.98;;;44.40;33.20;;;;;;5053194;28;20201;-54
2022/05/15 07:53:24;;;;;;;3.70;1.98;;;44.20;33.50;;;;;;5052746;28;20217;-54
2022/05/15 07:55:50;;;;;;;3.95;1.60;;;43.90;33.20;;;;;;5053512;28;20205;-56
2022/05/15 07:58:17;;;;;;;2.90;1.63;;;43.90;32.50;;;;;;5053265;28;20233;-56
2022/05/15 08:00:44;;;;;;;3.88;1.85;;;43.90;32.60;;;;;;5052980;28;20589;-57
2022/05/15 08:03:13;;;;;;;4.80;2.20;;;43.60;33.10;;;;;;5053096;28;20693;-57
2022/05/15 08:08:26;;;;;;;4.22;1.70;;;42.60;33.20;;;;;;5052931;28;20712;-56
2022/05/15 08:10:53;;;;;;;3.90;2.05;;;42.40;32.90;;;;;;5053095;28;20250;-56
2022/05/15 08:13:23;;;;;;;5.72;1.70;;;42.30;33.50;;;;;;5053136;28;20266;-56
2022/05/15 08:15:50;;;;;;;3.45;1.48;;;42.00;33.90;;;;;;5052802;28;20589;-56
2022/05/15 08:23:51;;;;;;;4.38;1.58;;;41.90;33.70;;;;;;5052541;28;20199;-57
2022/05/15 08:26:18;;;;;;;4.53;1.77;;;41.80;34.00;;;;;;5051992;28;20699;-56
2022/05/15 08:28:45;;;;;;;5.75;1.77;;;41.60;33.60;;;;;;5052404;28;20244;-57
2022/05/15 08:31:12;;;;;;;4.43;2.53;;;41.40;34.10;;;;;;5052551;28;20201;-56
2022/05/15 08:33:38;;;;;;;5.07;1.58;;;41.10;34.90;;;;;;5052364;28;20629;-56
2022/05/15 08:36:07;;;;;;;2.33;1.35;;;40.50;34.40;;;;;;5052116;28;20732;-56
2022/05/15 08:38:35;;;;;;;2.75;1.45;;;39.30;35.70;;;;;;5052220;28;20222;-56
2022/05/15 08:41:07;;;;;;;4.78;1.60;;;37.60;37.10;;;;;;5051924;28;20228;-56
2022/05/15 08:43:42;;;;;;;4.90;1.40;;;36.00;38.70;;;;;;5052077;28;20661;-56
2022/05/15 08:46:22;;;;;;;3.95;1.55;;;34.10;39.50;;;;;;5052035;28;20205;-56
2022/05/15 08:48:51;;;;;;;4.32;1.67;;;32.40;40.90;;;;;;5051818;28;20213;-56
2022/05/15 08:51:17;;;;;;;3.80;2.05;;;31.20;42.40;;;;;;5052013;28;20213;-56
2022/05/15 08:53:48;;;;;;;3.35;1.67;;;30.10;43.90;;;;;;5052551;28;20581;-56
2022/05/15 08:56:17;;;;;;;5.25;1.40;;;29.20;47.40;;;;;;5052181;28;20201;-56
2022/05/15 08:58:48;;;;;;;2.13;1.20;;;28.40;49.20;;;;;;5052331;28;20634;-56
2022/05/15 09:01:19;;;;;;;2.30;1.40;;;27.70;47.70;;;;;;5051886;28;20630;-57
2022/05/15 09:03:45;;;;;;;2.17;1.17;;;27.30;48.10;;;;;;5051999;28;20275;-57
2022/05/15 09:06:25;;;;;;;3.25;1.33;;;27.00;47.90;;;;;;5051785;28;20625;-56
2022/05/15 09:09:05;;;;;;;1.58;1.23;;;26.70;47.70;;;;;;5052257;28;20205;-56
2022/05/15 09:11:52;;;;;;;4.15;1.55;;;26.40;47.50;;;;;;5052079;28;20292;-56
2022/05/15 09:14:34;;;;;;;2.35;1.30;;;26.20;49.90;;;;;;5051939;28;20209;-56
2022/05/15 09:17:14;;;;;;;3.75;1.58;;;25.90;50.70;;;;;;5051642;28;20283;-57
2022/05/15 09:19:41;;;;;;;1.95;1.17;;;25.70;50.90;;;;;;5052014;28;20205;-57
2022/05/15 09:22:12;;;;;;;4.32;1.60;;;25.70;51.10;;;;;;5051980;28;20637;-56
2022/05/15 09:24:43;;;;;;;3.10;1.60;;;25.60;52.50;;;;;;5051785;28;20263;-56
2022/05/15 09:27:17;;;;;;;2.42;1.42;;;25.60;53.30;;;;;;5051816;28;20283;-56
2022/05/15 09:29:52;;;;;;;3.95;1.38;;;25.60;52.40;;;;;;5051655;28;20673;-56
2022/05/15 09:32:31;;;;;;;5.93;1.42;;;25.60;52.70;;;;;;5051317;28;20201;-57
2022/05/15 09:35:00;;;;;;;6.90;1.73;;;25.60;52.30;;;;;;5051872;28;20206;-57
2022/05/15 09:40:21;;;;;;;4.25;1.25;;;25.70;52.30;;;;;;5051925;28;20215;-56
2022/05/15 09:45:50;;;;;;;5.20;1.77;;;25.80;52.40;;;;;;5051843;28;20204;-56
2022/05/15 09:48:22;;;;;;;2.40;1.30;;;25.90;52.80;;;;;;5051588;28;20566;-55
2022/05/15 09:50:58;;;;;;;4.70;1.48;;;25.90;52.50;;;;;;5051764;28;20210;-56
2022/05/15 09:53:38;;;;;;;2.63;1.75;;;25.90;52.80;;;;;;5051530;28;20263;-56
2022/05/15 09:56:08;;;;;;;3.75;1.55;;;25.90;54.20;;;;;;5051786;28;20193;-56
2022/05/15 09:58:42;;;;;;;3.92;1.52;;;25.90;53.70;;;;;;5051195;28;20617;-57
2022/05/15 10:01:20;;;;;;;3.45;1.60;;;25.90;53.30;;;;;;5051344;28;20221;-57
2022/05/15 10:03:50;;;;;;;6.28;2.55;;;25.90;52.90;;;;;;5051380;28;20212;-56
2022/05/15 10:06:20;;;;;;;4.80;1.83;;;26.20;52.70;;;;;;5051056;28;20236;-56
2022/05/15 10:09:05;;;;;;;4.90;1.80;;;26.40;52.50;;;;;;5050950;28;20661;-55
2022/05/15 10:11:33;;;;;;;2.72;1.50;;;26.60;52.90;;;;;;5051171;28;20197;-56
2022/05/15 10:14:04;;;;;;;5.60;1.60;;;26.70;52.00;;;;;;5050970;28;20209;-54
2022/05/15 10:16:34;;;;;;;4.35;1.38;;;26.70;52.80;;;;;;5053887;28;20205;-55
2022/05/15 10:19:04;;;;;;;4.97;1.50;;;26.50;52.90;;;;;;5054693;28;20622;-55
2022/05/15 10:21:38;;;;;;;2.67;1.50;;;26.50;52.20;;;;;;5054933;28;20221;-55
2022/05/15 10:24:09;;;;;;;4.07;1.35;;;26.50;52.30;;;;;;5054552;28;20213;-57
2022/05/15 10:26:56;;;;;;;3.03;1.42;;;26.50;52.00;;;;;;5054693;28;20233;-54
2022/05/15 10:29:36;;;;;;;5.30;1.52;;;26.50;52.90;;;;;;5055064;28;20205;-55
2022/05/15 10:32:09;;;;;;;4.10;1.48;;;26.50;52.10;;;;;;5055311;28;20208;-55
2022/05/15 10:34:36;;;;;;;2.88;1.42;;;26.50;52.30;;;;;;5054633;28;20699;-55
2022/05/15 10:37:30;;;;;;;3.55;1.40;;;26.50;51.80;;;;;;5054148;28;20301;-55
2022/05/15 10:40:09;;;;;;;5.63;1.50;;;26.60;51.90;;;;;;5054007;28;20267;-55
2022/05/15 10:42:45;;;;;;;4.22;1.70;;;26.80;53.00;;;;;;5054482;28;20678;-55
2022/05/15 10:45:20;;;;;;;6.47;3.47;;;26.90;53.00;;;;;;5054333;28;20206;-55
2022/05/15 10:48:05;;;;;;;6.68;3.78;;;27.10;52.50;;;;;;5054155;28;20308;-55
2022/05/15 10:50:44;;;;;;;3.92;1.70;;;27.30;52.30;;;;;;5054450;28;20205;-56
2022/05/15 10:59:10;;;;;;;2.33;1.25;;;27.30;52.00;;;;;;5054905;28;20572;-55
2022/05/15 11:01:47;;;;;;;2.35;1.42;;;27.20;52.40;;;;;;5054458;28;20225;-55
2022/05/15 11:04:16;;;;;;;1.67;1.30;;;27.20;52.00;;;;;;5054469;28;20201;-55
2022/05/15 11:07:00;;;;;;;3.15;1.75;;;27.30;52.50;;;;;;5054451;28;20241;-55
2022/05/15 11:09:36;;;;;;;3.92;1.52;;;27.30;52.60;;;;;;5054148;28;20314;-55
2022/05/15 11:12:20;;;;;;;4.88;1.52;;;27.40;52.50;;;;;;5054129;28;20205;-56
2022/05/15 11:14:59;;;;;;;3.95;1.60;;;27.40;52.60;;;;;;5054335;28;20205;-57
2022/05/15 11:17:32;;;;;;;4.70;1.58;;;27.50;52.20;;;;;;5054331;28;20581;-55
2022/05/15 11:20:05;;;;;;;3.38;1.42;;;27.60;51.80;;;;;;5054393;28;20220;-56
2022/05/15 11:22:37;;;;;;;2.17;1.38;;;27.60;51.60;;;;;;5054512;28;20271;-55
2022/05/15 11:25:12;;;;;;;3.95;1.40;;;27.50;52.00;;;;;;5054248;28;20579;-55
2022/05/15 11:27:45;;;;;;;2.90;1.38;;;27.40;52.10;;;;;;5052484;28;20729;-56
2022/05/15 11:30:17;;;;;;;4.00;1.30;;;27.50;51.60;;;;;;5054182;28;20205;-55
2022/05/15 11:33:01;;;;;;;6.78;1.50;;;27.60;50.60;;;;;;5054065;28;20202;-56
2022/05/15 11:35:33;;;;;;;4.30;1.30;;;27.60;50.40;;;;;;5053753;28;20213;-56
2022/05/15 11:38:26;;;;;;;3.15;1.33;;;27.50;50.20;;;;;;5053305;28;20629;-56
2022/05/15 11:40:53;;;;;;;5.03;1.50;;;27.40;51.00;;;;;;5053841;28;20205;-55
2022/05/15 11:44:03;;;;;;;2.72;1.40;;;27.50;50.90;;;;;;5054205;28;20221;-55
2022/05/15 11:47:02;;;;;;;2.92;1.30;;;27.50;51.30;;;;;;5053039;28;20221;-55
2022/05/15 11:49:35;;;;;;;4.57;1.80;;;27.60;50.40;;;;;;5053910;28;20235;-55
2022/05/15 11:52:30;;;;;;;4.40;1.35;;;27.50;50.70;;;;;;5053671;28;20197;-55
2022/05/15 11:54:59;;;;;;;2.50;1.33;;;27.60;50.40;;;;;;5054001;28;20643;-55
2022/05/15 11:57:35;;;;;;;3.38;1.40;;;27.60;50.40;;;;;;5053188;28;20343;-59
2022/05/15 12:00:04;;;;;;;2.95;1.55;;;27.70;50.70;;;;;;5053872;28;20205;-60
2022/05/15 12:02:52;;;;;;;2.13;1.27;;;27.70;50.20;;;;;;5053426;28;20228;-56
2022/05/15 12:05:32;;;;;;;3.33;1.45;;;27.70;50.20;;;;;;5053861;28;20198;-56
2022/05/15 12:08:20;;;;;;;2.50;1.40;;;27.60;50.40;;;;;;5052856;28;20286;-56
2022/05/15 12:10:55;;;;;;;3.05;1.30;;;27.70;51.70;;;;;;5053112;28;20202;-56
2022/05/15 12:13:34;;;;;;;2.13;1.50;;;27.90;51.50;;;;;;5053339;28;20313;-57
2022/05/15 12:16:26;;;;;;;3.25;1.75;;;28.00;50.00;;;;;;5053636;28;20205;-58
2022/05/15 12:19:04;;;;;;;5.75;1.65;;;28.10;50.30;;;;;;5052870;28;20257;-57
2022/05/15 12:21:37;;;;;;;3.22;1.23;;;28.10;50.70;;;;;;5053007;28;20205;-58
2022/05/15 12:27:08;;;;;;;3.55;1.52;;;28.00;50.70;;;;;;5052980;28;20501;-55
2022/05/15 12:29:58;;;;;;;6.90;1.73;;;28.00;50.70;;;;;;5052967;28;20208;-57
2022/05/15 12:32:32;;;;;;;3.05;1.50;;;28.20;50.70;;;;;;5052559;28;20239;-56
2022/05/15 12:34:59;;;;;;;4.97;1.60;;;28.30;50.20;;;;;;5053092;28;20210;-57
2022/05/15 12:37:33;;;;;;;5.00;1.33;;;28.30;50.20;;;;;;5052017;28;20225;-56
2022/05/15 12:40:01;;;;;;;2.95;1.73;;;28.40;49.70;;;;;;5052583;28;20209;-57
2022/05/15 12:42:37;;;;;;;5.35;2.00;;;28.50;49.20;;;;;;5052813;28;20323;-57
2022/05/15 12:45:09;;;;;;;3.53;1.60;;;28.70;49.00;;;;;;5052628;28;20201;-57
2022/05/15 12:47:36;;;;;;;6.28;1.70;;;29.00;48.90;;;;;;5052110;28;20735;-54
2022/05/15 12:50:11;;;;;;;2.92;1.50;;;29.10;48.10;;;;;;5052428;28;20210;-61
2022/05/15 12:52:39;;;;;;;2.90;1.17;;;29.20;47.50;;;;;;5052241;28;20239;-58
2022/05/15 12:55:09;;;;;;;5.47;1.55;;;29.30;47.30;;;;;;5052044;28;20248;-57
2022/05/15 12:57:44;;;;;;;5.47;1.40;;;29.40;46.50;;;;;;5051951;28;20459;-57
2022/05/15 13:00:13;;;;;;;1.88;1.20;;;29.40;46.40;;;;;;5052155;28;20607;-58
2022/05/15 13:02:40;;;;;;;2.70;1.50;;;29.40;46.30;;;;;;5052303;28;20312;-58
2022/05/15 13:05:19;;;;;;;3.55;1.60;;;29.20;45.60;;;;;;5052234;28;20308;-57
2022/05/15 13:07:47;;;;;;;4.22;1.67;;;29.00;46.50;;;;;;5051647;28;20233;-58
2022/05/15 13:10:20;;;;;;;2.15;1.27;;;28.90;46.90;;;;;;5052070;28;20213;-57
2022/05/15 13:12:53;;;;;;;3.42;1.58;;;28.90;47.00;;;;;;5052138;28;20213;-57
2022/05/15 13:15:24;;;;;;;2.10;1.38;;;28.80;46.90;;;;;;5052039;28;20609;-57
2022/05/15 13:17:52;;;;;;;4.20;1.23;;;28.70;47.10;;;;;;5051698;28;20225;-57
2022/05/15 13:20:21;;;;;;;2.50;1.25;;;28.70;46.20;;;;;;5052301;28;20634;-57
2022/05/15 13:22:50;;;;;;;4.22;1.75;;;28.70;47.50;;;;;;5052086;28;20316;-56
2022/05/15 13:25:23;;;;;;;4.13;1.90;;;28.90;47.60;;;;;;5051744;28;20673;-56
2022/05/15 13:27:51;;;;;;;2.67;1.27;;;29.00;47.00;;;;;;5051521;28;20482;-58
2022/05/15 13:30:21;;;;;;;3.92;1.30;;;29.10;46.20;;;;;;5051970;28;20259;-58